Time;durP1;ratioP1;P1;durP2;ratioP2;P2;SDS_P1;SDS_P2;PMS_P1;PMS_P2;Temp;Humidity;BMP_temperature;BMP_pressure;BME280_temperature;BME280_humidity;BME280_pressure;Samples;Min_cycle;Max_cycle;Signal;HPM_P1;HPM_P2
2021/09/18 00:01:25;;;;;;;1.80;1.70;;;;;;;23.70;46.93;98365.25;5114409;27;20187;-53
2021/09/18 00:03:51;;;;;;;1.87;1.77;;;;;;;23.69;46.97;98360.94;5114514;28;20188;-52
2021/09/18 00:06:18;;;;;;;1.90;1.80;;;;;;;23.69;46.97;98368.94;5114749;28;20248;-53
2021/09/18 00:08:44;;;;;;;1.70;1.60;;;;;;;23.69;46.85;98366.28;5114389;28;20215;-54
2021/09/18 00:11:11;;;;;;;2.03;1.93;;;;;;;23.66;46.93;98361.34;5114221;28;20225;-53
2021/09/18 00:13:37;;;;;;;2.10;2.00;;;;;;;23.65;47.02;98360.53;5114745;28;20191;-53
2021/09/18 00:16:05;;;;;;;2.00;1.90;;;;;;;23.64;46.87;98360.72;5114302;28;20274;-53
2021/09/18 00:18:31;;;;;;;2.00;1.90;;;;;;;23.65;46.96;98359.69;5114005;28;20211;-52
2021/09/18 00:20:58;;;;;;;1.60;1.50;;;;;;;23.64;47.00;98363.38;5114022;28;20195;-52
2021/09/18 00:23:25;;;;;;;1.87;1.77;;;;;;;23.62;46.95;98360.91;5114020;28;20653;-53
2021/09/18 00:25:51;;;;;;;2.07;1.70;;;;;;;23.61;46.98;98356.59;5113691;28;20214;-52
2021/09/18 00:28:18;;;;;;;1.60;1.50;;;;;;;23.65;46.89;98362.38;5113965;28;20195;-52
2021/09/18 00:30:44;;;;;;;1.70;1.60;;;;;;;23.65;46.90;98357.03;5113791;28;20207;-52
2021/09/18 00:33:11;;;;;;;1.83;1.73;;;;;;;23.59;47.15;98353.31;5114069;28;20187;-52
2021/09/18 00:35:38;;;;;;;2.23;1.60;;;;;;;23.59;47.03;98355.19;5113792;28;20192;-53
2021/09/18 00:38:04;;;;;;;1.70;1.60;;;;;;;23.59;47.10;98355.19;5113757;28;20202;-53
2021/09/18 00:40:31;;;;;;;1.37;1.37;;;;;;;23.61;46.92;98358.47;5113649;28;20207;-52
2021/09/18 00:42:57;;;;;;;1.70;1.60;;;;;;;23.62;46.92;98349.44;5113645;28;20199;-52
2021/09/18 00:45:24;;;;;;;1.70;1.60;;;;;;;23.63;46.88;98348.44;5113638;28;20180;-52
2021/09/18 00:47:50;;;;;;;1.73;1.63;;;;;;;23.60;47.01;98351.50;5113788;28;20589;-52
2021/09/18 00:50:17;;;;;;;1.80;1.70;;;;;;;23.62;46.86;98352.13;5113563;28;20583;-52
2021/09/18 00:52:43;;;;;;;1.90;1.80;;;;;;;23.61;46.89;98343.28;5113570;28;20257;-52
2021/09/18 00:55:12;;;;;;;1.70;1.60;;;;;;;23.63;46.79;98353.75;5113510;28;20187;-53
2021/09/18 00:57:41;;;;;;;1.80;1.70;;;;;;;23.64;46.71;98350.06;5113509;28;20183;-53
2021/09/18 01:00:13;;;;;;;1.73;1.63;;;;;;;23.67;46.86;98347.00;5113653;28;20574;-52
2021/09/18 01:02:40;;;;;;;1.83;1.73;;;;;;;23.64;46.77;98347.41;5113748;28;20551;-52
2021/09/18 01:05:09;;;;;;;1.90;1.80;;;;;;;23.63;46.84;98343.09;5113394;28;20194;-52
2021/09/18 01:07:37;;;;;;;1.70;1.60;;;;;;;23.62;46.84;98338.78;5113343;28;20570;-53
2021/09/18 01:10:06;;;;;;;1.70;1.60;;;;;;;23.60;46.92;98338.16;5113325;28;20237;-52
2021/09/18 01:12:33;;;;;;;1.83;1.73;;;;;;;23.61;46.72;98337.97;5113910;28;20184;-53
2021/09/18 01:15:00;;;;;;;1.87;1.77;;;;;;;23.62;46.90;98339.59;5113340;28;20270;-52
2021/09/18 01:17:27;;;;;;;1.70;1.60;;;;;;;23.62;46.83;98334.28;5113327;28;20222;-52
2021/09/18 01:19:53;;;;;;;1.77;1.67;;;;;;;23.62;46.80;98334.28;5113194;28;20239;-52
2021/09/18 01:22:25;;;;;;;1.77;1.67;;;;;;;23.61;46.78;98335.28;5113274;28;20183;-52
2021/09/18 01:24:52;;;;;;;1.70;1.60;;;;;;;23.59;46.99;98339.19;5112380;28;20172;-53
2021/09/18 01:27:18;;;;;;;1.90;1.80;;;;;;;23.57;46.86;98349.22;5113169;28;20237;-52
2021/09/18 01:29:45;;;;;;;1.87;1.77;;;;;;;23.57;46.94;98341.22;5113175;28;20211;-53
2021/09/18 01:32:18;;;;;;;1.70;1.60;;;;;;;23.57;46.83;98336.72;5113416;28;20219;-52
2021/09/18 01:34:45;;;;;;;1.93;1.83;;;;;;;23.58;46.70;98338.34;5113239;28;20176;-53
2021/09/18 01:37:11;;;;;;;1.90;1.80;;;;;;;23.58;46.67;98338.34;5113557;28;20188;-53
2021/09/18 01:39:38;;;;;;;2.13;1.70;;;;;;;23.55;46.81;98338.75;5116162;28;20207;-53
2021/09/18 01:42:05;;;;;;;1.90;1.80;;;;;;;23.55;46.81;98338.75;5117181;28;20187;-53
2021/09/18 01:44:31;;;;;;;1.60;1.50;;;;;;;23.56;46.77;98336.91;5117385;28;20184;-52
2021/09/18 01:46:58;;;;;;;2.03;1.60;;;;;;;23.54;46.88;98339.78;5117358;28;20282;-52
2021/09/18 01:49:26;;;;;;;1.80;1.70;;;;;;;23.53;46.90;98336.28;5116966;28;20265;-52
2021/09/18 01:52:29;;;;;;;1.80;1.70;;;;;;;23.54;46.70;98343.25;5117469;28;20183;-54
2021/09/18 01:54:55;;;;;;;1.70;1.60;;;;;;;23.54;46.81;98334.44;5116949;28;20295;-53
2021/09/18 01:57:21;;;;;;;1.80;1.70;;;;;;;23.50;46.97;98335.88;5117027;28;20184;-52
2021/09/18 01:59:48;;;;;;;1.60;1.50;;;;;;;23.49;46.88;98335.03;5116785;28;20723;-52
2021/09/18 02:02:14;;;;;;;1.77;1.67;;;;;;;23.48;46.90;98336.06;5116818;28;20211;-52
2021/09/18 02:04:41;;;;;;;1.83;1.73;;;;;;;23.42;47.17;98336.00;5116650;28;20557;-52
2021/09/18 02:07:08;;;;;;;1.93;1.83;;;;;;;23.38;47.17;98331.09;5117112;28;20215;-49
2021/09/18 02:09:36;;;;;;;1.77;1.67;;;;;;;23.35;47.25;98334.16;5116582;28;20222;-52
2021/09/18 02:12:03;;;;;;;1.77;1.67;;;;;;;23.30;47.37;98325.91;5117627;28;20567;-52
2021/09/18 02:14:29;;;;;;;1.73;1.63;;;;;;;23.30;47.36;98322.44;5116816;28;20183;-52
2021/09/18 02:16:56;;;;;;;1.90;1.80;;;;;;;23.28;47.40;98319.97;5116423;28;20687;-52
2021/09/18 02:19:23;;;;;;;1.70;1.60;;;;;;;23.28;47.41;98319.97;5116332;28;20218;-52
2021/09/18 02:21:49;;;;;;;2.10;2.00;;;;;;;23.28;47.40;98316.50;5116423;28;20190;-52
2021/09/18 02:24:16;;;;;;;1.70;1.60;;;;;;;23.27;47.44;98320.16;5116359;28;20188;-52
2021/09/18 02:26:42;;;;;;;1.83;1.73;;;;;;;23.24;47.60;98322.19;5116541;28;20203;-52
2021/09/18 02:29:09;;;;;;;1.83;1.50;;;;;;;23.24;47.44;98324.84;5116226;28;20207;-52
2021/09/18 02:31:35;;;;;;;1.80;1.70;;;;;;;23.21;47.41;98311.91;5116481;28;20206;-53
2021/09/18 02:34:02;;;;;;;2.10;2.00;;;;;;;23.22;47.58;98318.88;5116158;28;20195;-52
2021/09/18 02:36:28;;;;;;;1.73;1.63;;;;;;;23.23;47.54;98317.84;5116081;28;20183;-53
2021/09/18 02:38:55;;;;;;;1.90;1.80;;;;;;;23.21;47.44;98317.22;5116228;28;20214;-52
2021/09/18 02:41:21;;;;;;;1.60;1.50;;;;;;;23.20;47.58;98320.09;5116003;28;20270;-53
2021/09/18 02:43:48;;;;;;;1.90;1.80;;;;;;;23.22;47.52;98320.72;5116230;28;20610;-52
2021/09/18 02:46:14;;;;;;;1.73;1.63;;;;;;;23.23;47.43;98319.69;5116100;27;20179;-52
2021/09/18 02:48:41;;;;;;;1.70;1.60;;;;;;;23.22;47.33;98318.88;5115884;28;20270;-53
2021/09/18 02:51:22;;;;;;;1.90;1.47;;;;;;;23.23;47.37;98323.16;5115860;28;20171;-52
2021/09/18 02:53:49;;;;;;;1.70;1.60;;;;;;;23.28;47.27;98319.16;5116373;28;20191;-52
2021/09/18 02:56:16;;;;;;;1.80;1.70;;;;;;;23.27;47.37;98320.16;5116236;28;20188;-52
2021/09/18 02:58:42;;;;;;;1.70;1.60;;;;;;;23.21;47.45;98311.91;5115642;28;20184;-52
2021/09/18 03:01:09;;;;;;;1.80;1.70;;;;;;;23.19;47.36;98308.59;5115625;28;20266;-53
2021/09/18 03:03:36;;;;;;;1.80;1.70;;;;;;;23.19;47.51;98308.59;5115792;28;20183;-52
2021/09/18 03:06:02;;;;;;;1.73;1.63;;;;;;;23.19;47.49;98313.13;5115501;28;20201;-52
2021/09/18 03:08:29;;;;;;;1.60;1.50;;;;;;;23.18;47.43;98312.28;5115644;28;20350;-53
2021/09/18 03:10:56;;;;;;;1.57;1.47;;;;;;;23.18;47.59;98309.63;5115658;28;20676;-53
2021/09/18 03:13:22;;;;;;;1.80;1.70;;;;;;;23.18;47.35;98301.66;5115646;28;20188;-52
2021/09/18 03:15:49;;;;;;;1.90;1.80;;;;;;;23.19;47.37;98305.94;5115872;28;20645;-52
2021/09/18 03:18:15;;;;;;;1.87;1.77;;;;;;;23.19;47.41;98305.94;5115625;28;20532;-52
2021/09/18 03:20:42;;;;;;;1.70;1.60;;;;;;;23.18;47.44;98303.50;5115101;28;20203;-54
2021/09/18 03:23:08;;;;;;;1.70;1.60;;;;;;;23.16;47.40;98303.69;5115219;28;20194;-52
2021/09/18 03:25:35;;;;;;;1.93;1.83;;;;;;;23.18;47.48;98312.28;5115114;28;20193;-52
2021/09/18 03:28:02;;;;;;;2.00;1.90;;;;;;;23.17;47.50;98310.66;5115034;28;20298;-52
2021/09/18 03:30:29;;;;;;;1.63;1.53;;;;;;;23.16;47.46;98313.50;5115274;28;20278;-52
2021/09/18 03:32:55;;;;;;;1.60;1.50;;;;;;;23.15;47.55;98306.53;5115494;28;20546;-52
2021/09/18 03:35:22;;;;;;;1.67;1.57;;;;;;;23.14;47.58;98308.38;5115201;28;20190;-52
2021/09/18 03:37:48;;;;;;;1.80;1.70;;;;;;;23.15;47.53;98307.38;5114907;28;20259;-52
2021/09/18 03:40:15;;;;;;;1.80;1.70;;;;;;;23.13;47.51;98313.88;5114989;28;20219;-52
2021/09/18 03:42:41;;;;;;;1.63;1.53;;;;;;;23.11;47.51;98301.59;5115149;28;20657;-53
2021/09/18 03:45:09;;;;;;;1.87;1.77;;;;;;;23.10;47.55;98305.28;5115024;28;20312;-52
2021/09/18 03:47:36;;;;;;;1.60;1.50;;;;;;;23.11;47.57;98311.44;5114632;28;20680;-53
2021/09/18 03:50:04;;;;;;;1.70;1.60;;;;;;;23.10;47.59;98299.16;5114640;28;20254;-52
2021/09/18 03:52:31;;;;;;;1.67;1.57;;;;;;;23.14;47.43;98311.03;5114635;28;20617;-52
2021/09/18 03:54:58;;;;;;;1.60;1.50;;;;;;;23.14;47.57;98305.72;5114811;28;20703;-52
2021/09/18 03:57:25;;;;;;;1.83;1.73;;;;;;;23.13;47.49;98304.06;5114589;28;20194;-53
2021/09/18 03:59:51;;;;;;;1.90;1.70;;;;;;;23.13;47.49;98306.75;5114282;28;20207;-52
2021/09/18 04:02:18;;;;;;;1.70;1.60;;;;;;;23.13;47.48;98303.25;5114266;28;20666;-53
2021/09/18 04:04:45;;;;;;;1.97;1.87;;;;;;;23.14;47.51;98305.72;5114451;28;20736;-52
2021/09/18 04:07:11;;;;;;;1.87;1.77;;;;;;;23.14;47.40;98305.72;5114801;28;20290;-52
2021/09/18 04:09:38;;;;;;;2.00;1.90;;;;;;;23.14;47.33;98305.72;5114162;28;20238;-52
2021/09/18 04:12:04;;;;;;;1.70;1.60;;;;;;;23.14;47.43;98308.38;5114439;28;20198;-52
2021/09/18 04:14:31;;;;;;;1.53;1.43;;;;;;;23.15;47.28;98306.53;5114144;28;20183;-53
2021/09/18 04:16:58;;;;;;;1.80;1.70;;;;;;;23.16;47.49;98308.16;5114024;28;20282;-52
2021/09/18 04:19:24;;;;;;;1.73;1.63;;;;;;;23.15;47.51;98311.84;5114105;27;20203;-52
2021/09/18 04:21:51;;;;;;;1.80;1.70;;;;;;;23.13;47.33;98314.72;5114049;28;20270;-52
2021/09/18 04:24:17;;;;;;;1.93;1.80;;;;;;;23.19;47.16;98313.94;5114077;28;20187;-53
2021/09/18 04:26:44;;;;;;;1.77;1.67;;;;;;;23.23;47.07;98315.19;5113909;28;20191;-53
2021/09/18 04:29:10;;;;;;;1.63;1.53;;;;;;;23.28;47.12;98311.16;5113804;28;20218;-53
2021/09/18 04:31:37;;;;;;;1.67;1.57;;;;;;;23.28;46.89;98309.31;5114187;28;20183;-52
2021/09/18 04:34:03;;;;;;;1.57;1.47;;;;;;;23.30;46.92;98314.44;5113979;28;20675;-52
2021/09/18 04:36:30;;;;;;;1.70;1.60;;;;;;;23.29;47.00;98320.78;5114112;28;20179;-53
2021/09/18 04:38:56;;;;;;;1.90;1.80;;;;;;;23.28;46.85;98314.63;5113903;28;20574;-52
2021/09/18 04:41:26;;;;;;;1.70;1.60;;;;;;;23.28;47.02;98321.81;5114264;28;20187;-55
2021/09/18 04:43:53;;;;;;;1.90;1.80;;;;;;;23.28;46.95;98321.81;5113764;28;20214;-53
2021/09/18 04:46:20;;;;;;;1.70;1.60;;;;;;;23.28;46.91;98327.94;5113626;28;20185;-52
2021/09/18 04:48:47;;;;;;;1.63;1.53;;;;;;;23.22;47.05;98334.84;5113456;28;20235;-52
2021/09/18 04:51:13;;;;;;;1.73;1.63;;;;;;;23.19;47.13;98324.56;5113866;28;20678;-52
2021/09/18 04:53:40;;;;;;;1.37;1.37;;;;;;;23.18;47.12;98330.94;5113569;28;20194;-52
2021/09/18 04:56:06;;;;;;;1.80;1.70;;;;;;;23.19;47.13;98329.91;5113608;28;20274;-53
2021/09/18 04:58:33;;;;;;;1.70;1.60;;;;;;;23.21;47.09;98327.06;5113607;28;20218;-52
2021/09/18 05:00:59;;;;;;;1.70;1.60;;;;;;;23.21;47.00;98330.53;5113483;28;20240;-53
2021/09/18 05:03:26;;;;;;;1.67;1.57;;;;;;;23.22;46.97;98332.16;5113468;28;20555;-54
2021/09/18 05:05:53;;;;;;;1.50;1.50;;;;;;;23.23;46.96;98331.16;5113713;28;20190;-52
2021/09/18 05:08:19;;;;;;;1.80;1.70;;;;;;;23.22;46.98;98334.84;5113309;28;20211;-51
2021/09/18 05:10:46;;;;;;;1.70;1.60;;;;;;;23.23;46.83;98335.66;5113324;28;20206;-52
2021/09/18 05:13:13;;;;;;;1.60;1.50;;;;;;;23.21;47.10;98335.84;5115552;28;20183;-53
2021/09/18 05:15:39;;;;;;;1.80;1.67;;;;;;;23.19;47.00;98340.56;5117574;28;20179;-52
2021/09/18 05:18:06;;;;;;;1.80;1.70;;;;;;;23.19;46.96;98337.88;5117585;28;20187;-52
2021/09/18 05:20:32;;;;;;;1.70;1.60;;;;;;;23.18;47.01;98341.56;5117530;28;20206;-52
2021/09/18 05:22:59;;;;;;;1.80;1.70;;;;;;;23.18;46.95;98348.75;5117762;28;20175;-53
2021/09/18 05:25:26;;;;;;;1.83;1.73;;;;;;;23.18;46.93;98351.41;5117662;28;20199;-52
2021/09/18 05:27:53;;;;;;;1.67;1.57;;;;;;;23.16;47.17;98345.44;5117300;28;20221;-52
2021/09/18 05:30:19;;;;;;;1.70;1.60;;;;;;;23.18;47.00;98352.22;5117344;28;20696;-52
2021/09/18 05:32:46;;;;;;;1.57;1.50;;;;;;;23.19;47.08;98355.72;5117357;28;20190;-52
2021/09/18 05:35:12;;;;;;;1.30;1.30;;;;;;;23.19;46.92;98358.38;5117299;28;20191;-54
2021/09/18 05:37:39;;;;;;;1.57;1.47;;;;;;;23.23;47.04;98351.66;5117729;28;20719;-53
2021/09/18 05:40:06;;;;;;;1.80;1.70;;;;;;;23.26;46.91;98353.94;5117658;28;20214;-52
2021/09/18 05:42:33;;;;;;;1.50;1.40;;;;;;;23.30;46.70;98357.03;5117111;28;20183;-54
2021/09/18 05:45:00;;;;;;;1.77;1.63;;;;;;;23.33;46.64;98361.97;5117094;28;20179;-53
2021/09/18 05:47:27;;;;;;;1.53;1.43;;;;;;;23.38;46.48;98360.38;5116963;28;20240;-52
2021/09/18 05:49:53;;;;;;;1.37;1.37;;;;;;;23.40;46.43;98362.84;5116973;28;20199;-52
2021/09/18 05:52:20;;;;;;;1.60;1.50;;;;;;;23.45;46.28;98365.75;5116984;28;20188;-53
2021/09/18 05:54:46;;;;;;;1.50;1.40;;;;;;;23.48;46.31;98349.38;5116886;28;20665;-53
2021/09/18 05:57:13;;;;;;;1.80;1.70;;;;;;;23.52;46.17;98349.81;5116800;28;20206;-53
2021/09/18 05:59:39;;;;;;;1.47;1.37;;;;;;;23.54;46.26;98358.41;5116711;28;20203;-53
2021/09/18 06:02:06;;;;;;;1.30;1.30;;;;;;;23.56;46.12;98355.53;5116819;28;20199;-53
2021/09/18 06:04:33;;;;;;;1.43;1.43;;;;;;;23.57;46.30;98352.69;5116752;28;20179;-53
2021/09/18 06:06:59;;;;;;;1.63;1.53;;;;;;;23.58;46.14;98353.53;5116622;28;20184;-54
2021/09/18 06:09:26;;;;;;;1.50;1.40;;;;;;;23.61;46.18;98353.13;5116561;28;20209;-53
2021/09/18 06:11:52;;;;;;;1.70;1.60;;;;;;;23.61;45.97;98353.94;5116561;28;20266;-54
2021/09/18 06:14:19;;;;;;;1.50;1.40;;;;;;;23.65;46.00;98357.03;5116524;28;20191;-53
2021/09/18 06:16:45;;;;;;;1.53;1.43;;;;;;;23.65;45.96;98354.38;5116802;27;20198;-52
2021/09/18 06:19:14;;;;;;;1.53;1.43;;;;;;;23.67;45.94;98358.50;5116404;28;20256;-52
2021/09/18 06:21:41;;;;;;;1.53;1.43;;;;;;;23.66;45.96;98356.03;5116614;28;20190;-53
2021/09/18 06:24:11;;;;;;;1.60;1.50;;;;;;;23.69;46.08;98360.94;5115903;28;20198;-50
2021/09/18 06:26:39;;;;;;;1.63;1.53;;;;;;;23.68;45.93;98361.97;5116537;28;20185;-52
2021/09/18 06:29:05;;;;;;;1.60;1.50;;;;;;;23.68;45.99;98359.31;5116389;28;20211;-53
2021/09/18 06:31:32;;;;;;;1.57;1.50;;;;;;;23.68;46.11;98356.63;5116183;28;20188;-52
2021/09/18 06:33:58;;;;;;;1.60;1.50;;;;;;;23.67;46.00;98347.84;5116411;28;20200;-50
2021/09/18 06:36:25;;;;;;;1.20;1.20;;;;;;;23.67;45.98;98352.34;5116460;28;20187;-53
2021/09/18 06:38:52;;;;;;;1.67;1.57;;;;;;;23.66;46.07;98351.53;5115990;28;20210;-53
2021/09/18 06:41:18;;;;;;;1.87;1.70;;;;;;;23.68;46.01;98351.31;5116230;28;20686;-53
2021/09/18 06:43:45;;;;;;;1.60;1.50;;;;;;;23.72;45.96;98354.41;5117231;28;20642;-54
2021/09/18 06:46:11;;;;;;;1.40;1.30;;;;;;;23.73;45.83;98362.22;5115931;28;20209;-54
2021/09/18 06:48:38;;;;;;;1.60;1.50;;;;;;;23.73;46.02;98359.56;5115795;28;20707;-53
2021/09/18 06:51:04;;;;;;;2.20;1.77;;;;;;;23.72;45.68;98367.72;5116308;28;20187;-54
2021/09/18 06:53:31;;;;;;;1.80;1.70;;;;;;;23.73;45.69;98364.88;5116087;28;20666;-55
2021/09/18 06:55:58;;;;;;;2.10;1.60;;;;;;;23.75;45.62;98364.66;5116105;28;20230;-54
2021/09/18 06:58:24;;;;;;;1.73;1.63;;;;;;;23.74;45.71;98363.84;5116331;27;20703;-54
2021/09/18 07:00:51;;;;;;;1.70;1.60;;;;;;;23.75;45.89;98364.66;5115881;28;20187;-53
2021/09/18 07:03:18;;;;;;;2.00;1.73;;;;;;;23.77;45.95;98368.78;5116069;28;20547;-52
2021/09/18 07:05:44;;;;;;;1.67;1.40;;;;;;;23.78;45.99;98370.44;5115827;28;20274;-54
2021/09/18 07:08:11;;;;;;;1.90;1.80;;;;;;;23.74;46.09;98376.34;5115439;28;20632;-55
2021/09/18 07:10:38;;;;;;;2.00;1.80;;;;;;;23.69;46.08;98376.94;5115544;28;20226;-56
2021/09/18 07:13:04;;;;;;;1.87;1.60;;;;;;;23.70;46.23;98377.78;5115542;28;20198;-56
2021/09/18 07:15:30;;;;;;;3.40;2.03;;;;;;;23.68;46.16;98380.63;5115442;28;20650;-55
2021/09/18 07:17:57;;;;;;;1.80;1.70;;;;;;;23.65;46.28;98384.50;5115060;28;20532;-54
2021/09/18 07:20:24;;;;;;;1.80;1.70;;;;;;;23.66;46.26;98377.31;5115184;28;20286;-53
2021/09/18 07:22:50;;;;;;;2.07;1.70;;;;;;;23.65;46.41;98381.00;5115377;28;20191;-54
2021/09/18 07:25:17;;;;;;;2.00;1.80;;;;;;;23.59;46.56;98382.63;5115321;28;20215;-54
2021/09/18 07:27:44;;;;;;;1.90;1.80;;;;;;;23.60;46.60;98380.78;5114888;28;20214;-55
2021/09/18 07:30:10;;;;;;;2.80;1.53;;;;;;;23.60;46.57;98378.94;5114897;28;20222;-53
2021/09/18 07:32:37;;;;;;;2.97;1.90;;;;;;;23.60;46.58;98383.44;5115149;28;20203;-53
2021/09/18 07:35:07;;;;;;;2.00;1.80;;;;;;;23.58;46.66;98386.31;5114012;28;20219;-54
2021/09/18 07:37:37;;;;;;;2.33;1.57;;;;;;;23.60;46.60;98394.91;5114847;27;20234;-54
2021/09/18 07:40:11;;;;;;;3.03;1.80;;;;;;;23.60;46.62;98389.59;5114663;28;20203;-55
2021/09/18 07:42:38;;;;;;;1.70;1.60;;;;;;;23.58;46.73;98391.63;5115551;28;20171;-53
2021/09/18 07:45:05;;;;;;;1.67;1.57;;;;;;;23.60;46.67;98389.59;5114662;28;20183;-56
2021/09/18 07:47:32;;;;;;;2.23;1.90;;;;;;;23.58;46.74;98396.16;5114697;28;20518;-56
2021/09/18 07:50:00;;;;;;;1.83;1.60;;;;;;;23.56;46.59;98393.66;5114479;28;20582;-55
2021/09/18 07:52:26;;;;;;;2.27;1.73;;;;;;;23.57;46.65;98394.50;5113520;28;20183;-56
2021/09/18 07:54:53;;;;;;;2.80;1.93;;;;;;;23.57;46.73;98394.50;5114578;28;20202;-55
2021/09/18 07:57:40;;;;;;;1.70;1.60;;;;;;;23.59;46.64;98395.13;5114527;28;20182;-54
2021/09/18 08:00:07;;;;;;;1.90;1.80;;;;;;;23.59;46.61;98392.47;5114699;28;20298;-56
2021/09/18 08:02:35;;;;;;;2.13;1.70;;;;;;;23.59;46.73;98393.28;5114929;28;20198;-54
2021/09/18 08:05:02;;;;;;;1.53;1.43;;;;;;;23.61;46.81;98383.25;5114353;28;20183;-55
2021/09/18 08:07:29;;;;;;;1.80;1.70;;;;;;;23.63;46.93;98393.72;5114241;28;20225;-55
2021/09/18 08:09:56;;;;;;;1.63;1.53;;;;;;;23.65;46.72;98386.34;5114090;28;20214;-56
2021/09/18 08:12:24;;;;;;;3.37;1.90;;;;;;;23.64;46.75;98387.38;5114487;28;20262;-54
2021/09/18 08:14:51;;;;;;;2.03;1.87;;;;;;;23.64;46.67;98384.69;5113060;28;20291;-55
2021/09/18 08:17:18;;;;;;;2.53;1.90;;;;;;;23.63;46.59;98383.06;5113868;28;20202;-56
2021/09/18 08:19:44;;;;;;;1.77;1.67;;;;;;;23.62;46.76;98384.06;5113979;28;20705;-56
2021/09/18 08:22:11;;;;;;;1.83;1.73;;;;;;;23.62;46.50;98381.41;5113986;28;20274;-54
2021/09/18 08:24:38;;;;;;;1.43;1.40;;;;;;;23.61;46.57;98379.78;5113952;28;20191;-53
2021/09/18 08:27:05;;;;;;;1.90;1.80;;;;;;;23.62;46.68;98381.41;5114072;28;20201;-54
2021/09/18 08:29:32;;;;;;;1.63;1.53;;;;;;;23.63;46.71;98383.06;5113860;28;20210;-54
2021/09/18 08:31:59;;;;;;;1.70;1.60;;;;;;;23.64;46.56;98379.38;5113726;28;20589;-54
2021/09/18 08:34:25;;;;;;;1.70;1.60;;;;;;;23.65;46.64;98383.69;5113940;28;20191;-55
2021/09/18 08:36:52;;;;;;;1.70;1.60;;;;;;;23.65;46.64;98381.00;5113934;28;20196;-56
2021/09/18 08:39:18;;;;;;;1.87;1.70;;;;;;;23.66;46.65;98387.97;5113889;28;20211;-54
2021/09/18 08:41:47;;;;;;;1.70;1.60;;;;;;;23.67;46.57;98387.81;5113620;28;20207;-56
2021/09/18 08:44:15;;;;;;;1.57;1.47;;;;;;;23.68;46.59;98383.28;5113685;28;20187;-56
2021/09/18 08:46:43;;;;;;;3.07;1.90;;;;;;;23.70;46.49;98381.22;5113891;28;20287;-55
2021/09/18 08:49:10;;;;;;;1.70;1.60;;;;;;;23.71;46.45;98379.41;5113389;28;20645;-56
2021/09/18 08:51:38;;;;;;;1.80;1.70;;;;;;;23.74;46.44;98384.34;5113494;28;20194;-56
2021/09/18 08:54:04;;;;;;;1.93;1.50;;;;;;;23.75;46.37;98392.16;5113565;28;20189;-56
2021/09/18 08:56:31;;;;;;;1.63;1.53;;;;;;;23.76;46.28;98395.63;5112217;28;20232;-56
2021/09/18 08:58:58;;;;;;;1.67;1.57;;;;;;;23.74;46.50;98398.50;5113647;28;20211;-56
2021/09/18 09:01:26;;;;;;;1.50;1.40;;;;;;;23.74;46.41;98398.50;5113427;28;20184;-56
2021/09/18 09:04:02;;;;;;;1.70;1.60;;;;;;;23.76;46.42;98388.47;5113504;28;20183;-54
2021/09/18 09:06:52;;;;;;;1.77;1.67;;;;;;;23.78;46.27;98391.75;5113707;28;20190;-53
2021/09/18 09:09:18;;;;;;;1.90;1.60;;;;;;;23.78;46.27;98394.41;5113738;28;20684;-54
2021/09/18 09:11:51;;;;;;;1.67;1.57;;;;;;;23.78;46.23;98386.41;5113598;28;20225;-55
2021/09/18 09:14:18;;;;;;;1.60;1.50;;;;;;;23.77;46.37;98383.94;5113935;28;20180;-54
2021/09/18 09:17:04;;;;;;;2.17;1.60;;;;;;;23.76;46.26;98383.13;5113576;28;20187;-56
2021/09/18 09:19:38;;;;;;;1.60;1.50;;;;;;;23.76;46.21;98382.28;5113292;28;20225;-55
2021/09/18 09:22:04;;;;;;;1.60;1.50;;;;;;;23.74;46.22;98382.50;5113296;28;20187;-55
2021/09/18 09:24:31;;;;;;;1.70;1.60;;;;;;;23.73;46.39;98386.19;5113235;28;20684;-56
2021/09/18 09:27:11;;;;;;;1.87;1.77;;;;;;;23.73;46.50;98383.53;5113247;28;20596;-54
2021/09/18 09:29:44;;;;;;;1.70;1.60;;;;;;;23.72;46.53;98381.88;5113438;28;20218;-55
2021/09/18 09:32:28;;;;;;;1.60;1.50;;;;;;;23.73;46.38;98378.19;5113743;28;20201;-55
2021/09/18 09:34:56;;;;;;;1.60;1.50;;;;;;;23.70;46.55;98378.56;5113246;28;20178;-54
2021/09/18 09:37:24;;;;;;;1.77;1.67;;;;;;;23.71;46.39;98380.22;5113670;28;20192;-54
2021/09/18 09:39:59;;;;;;;1.77;1.67;;;;;;;23.72;46.40;98381.88;5112981;28;20283;-54
2021/09/18 09:42:31;;;;;;;1.43;1.43;;;;;;;23.71;46.42;98377.56;5113137;28;20183;-55
2021/09/18 09:45:16;;;;;;;1.53;1.43;;;;;;;23.71;46.43;98379.41;5113354;28;20229;-56
2021/09/18 09:47:44;;;;;;;2.60;1.60;;;;;;;23.70;46.37;98383.09;5113298;28;20262;-54
2021/09/18 09:50:12;;;;;;;1.70;1.60;;;;;;;23.68;46.46;98372.63;5112870;28;20215;-54
2021/09/18 09:52:42;;;;;;;1.40;1.30;;;;;;;23.71;46.35;98374.88;5113515;28;20187;-54
2021/09/18 09:55:14;;;;;;;1.50;1.40;;;;;;;23.73;46.36;98374.69;5112959;28;20206;-54
2021/09/18 09:57:43;;;;;;;1.60;1.50;;;;;;;23.70;46.14;98370.59;5112961;28;20186;-55
2021/09/18 10:00:13;;;;;;;1.60;1.50;;;;;;;23.71;46.23;98374.88;5116314;28;20221;-56
2021/09/18 10:02:41;;;;;;;1.70;1.60;;;;;;;23.68;46.33;98375.28;5116725;28;20191;-55
2021/09/18 10:05:11;;;;;;;1.67;1.57;;;;;;;23.66;46.38;98372.00;5117212;27;20210;-56
2021/09/18 10:07:39;;;;;;;1.90;1.80;;;;;;;23.67;46.30;98374.47;5117888;28;20183;-56
2021/09/18 10:10:09;;;;;;;1.70;1.60;;;;;;;23.70;46.22;98372.44;5116602;28;20215;-57
2021/09/18 10:12:36;;;;;;;1.57;1.47;;;;;;;23.76;46.11;98375.13;5116689;28;20238;-56
2021/09/18 10:15:06;;;;;;;1.63;1.53;;;;;;;23.76;46.05;98371.63;5116657;28;20191;-56
2021/09/18 10:17:36;;;;;;;1.60;1.50;;;;;;;23.69;46.29;98376.94;5116340;28;20195;-56
2021/09/18 10:20:07;;;;;;;1.60;1.50;;;;;;;23.68;46.28;98375.28;5116376;28;20622;-56
2021/09/18 10:25:25;;;;;;;1.70;1.60;;;;;;;23.73;46.20;98372.03;5116311;28;20229;-55
2021/09/18 10:28:01;;;;;;;1.43;1.33;;;;;;;23.73;46.13;98370.22;5116548;28;20191;-56
2021/09/18 10:30:33;;;;;;;1.70;1.60;;;;;;;23.74;46.07;98363.84;5116361;28;20221;-56
2021/09/18 10:33:01;;;;;;;1.67;1.57;;;;;;;23.74;45.97;98363.84;5116513;28;20172;-57
2021/09/18 10:35:30;;;;;;;1.83;1.57;;;;;;;23.74;46.07;98363.03;5116284;28;20183;-57
2021/09/18 10:37:58;;;;;;;2.43;2.30;;;;;;;23.73;46.04;98356.88;5116635;28;20187;-59
2021/09/18 10:40:24;;;;;;;2.13;1.93;;;;;;;23.75;45.84;98357.50;5118882;28;20207;-56
2021/09/18 10:42:51;;;;;;;2.10;1.90;;;;;;;23.76;45.99;98372.47;5118520;28;20237;-57
2021/09/18 10:45:18;;;;;;;2.37;2.27;;;;;;;23.74;46.22;98357.69;5117775;28;20191;-56
2021/09/18 10:47:48;;;;;;;2.20;2.10;;;;;;;23.73;45.89;98356.88;5116609;28;20187;-54
2021/09/18 10:50:21;;;;;;;3.83;2.60;;;;;;;23.69;45.98;98347.63;5116017;28;20259;-56
2021/09/18 10:53:01;;;;;;;3.30;2.50;;;;;;;23.70;46.03;98349.28;5116770;28;20615;-57
2021/09/18 10:55:30;;;;;;;2.93;2.73;;;;;;;23.68;45.87;98348.66;5115875;28;20654;-54
2021/09/18 10:57:57;;;;;;;3.43;2.97;;;;;;;23.72;45.94;98354.41;5115695;28;20528;-57
2021/09/18 11:00:24;;;;;;;3.17;2.97;;;;;;;23.72;46.00;98354.41;5115961;28;20203;-57
2021/09/18 11:02:59;;;;;;;3.43;3.13;;;;;;;23.71;45.94;98353.56;5116046;28;20200;-56
2021/09/18 11:05:26;;;;;;;2.00;1.90;;;;;;;23.74;45.84;98347.88;5116946;28;20630;-58
2021/09/18 11:08:04;;;;;;;2.50;2.30;;;;;;;23.76;45.71;98356.50;5116635;28;20685;-56
2021/09/18 11:10:30;;;;;;;2.60;2.50;;;;;;;23.78;45.53;98349.13;5114425;28;20219;-56
2021/09/18 11:13:08;;;;;;;2.93;2.30;;;;;;;23.79;45.22;98349.91;5115771;28;20190;-57
2021/09/18 11:15:44;;;;;;;4.03;2.73;;;;;;;23.80;45.62;98344.41;5115876;28;20224;-57
2021/09/18 11:18:26;;;;;;;2.80;2.60;;;;;;;23.80;45.47;98347.06;5115492;28;20251;-53
2021/09/18 11:21:05;;;;;;;2.83;2.60;;;;;;;23.80;45.42;98347.06;5115544;28;20164;-54
2021/09/18 11:23:51;;;;;;;3.50;3.20;;;;;;;23.82;45.47;98345.03;5115491;28;20183;-52
2021/09/18 11:26:35;;;;;;;3.10;2.87;;;;;;;23.82;45.39;98344.22;5115818;28;20610;-56
2021/09/18 11:29:22;;;;;;;3.40;2.97;;;;;;;23.81;45.23;98335.38;5113942;28;20746;-57
2021/09/18 11:32:10;;;;;;;3.40;3.10;;;;;;;23.83;45.30;98332.53;5115489;27;20225;-54
2021/09/18 11:34:45;;;;;;;3.80;3.40;;;;;;;23.82;45.27;98336.22;5115212;28;20192;-56
2021/09/18 11:37:24;;;;;;;3.83;2.80;;;;;;;23.82;45.41;98334.38;5115124;28;20263;-57
2021/09/18 11:39:54;;;;;;;3.27;2.97;;;;;;;23.84;45.14;98322.69;5115098;28;20206;-57
2021/09/18 11:42:33;;;;;;;3.30;3.00;;;;;;;23.85;45.23;98329.66;5114889;28;20637;-56